createdAt,value
2023-12-11T00:01:44.978Z,99268.25
2023-12-11T00:04:13.736Z,99264.72
2023-12-11T00:06:40.713Z,99262.50
2023-12-11T00:09:17.352Z,99260.91
2023-12-11T00:11:44.117Z,99258.16
2023-12-11T00:14:11.957Z,99269.34
2023-12-11T00:16:38.821Z,99268.81
2023-12-11T00:19:05.634Z,99266.09
2023-12-11T00:21:32.418Z,99263.88
2023-12-11T00:24:00.269Z,99268.81
2023-12-11T00:26:27.737Z,99253.78
2023-12-11T00:28:55.573Z,99257.34
2023-12-11T00:31:27.050Z,99261.72
2023-12-11T00:33:54.058Z,99243.16
2023-12-11T00:36:20.984Z,99264.22
2023-12-11T00:38:52.124Z,99263.94
2023-12-11T00:41:53.553Z,99265.00
2023-12-11T00:47:09.256Z,99231.41
2023-12-11T00:49:41.458Z,99247.50
2023-12-11T00:52:10.468Z,99233.28
2023-12-11T00:54:40.484Z,99254.63
2023-12-11T00:57:08.682Z,99239.88
2023-12-11T00:59:39.039Z,99250.78
2023-12-11T01:02:06.454Z,99243.13
2023-12-11T01:04:43.108Z,99255.69
2023-12-11T01:07:10.503Z,99227.81
2023-12-11T01:09:37.540Z,99278.13
2023-12-11T01:12:04.932Z,99260.63
2023-12-11T01:14:33.431Z,99277.03
2023-12-11T01:17:00.292Z,99278.66
2023-12-11T01:19:48.204Z,99281.16
2023-12-11T01:22:15.072Z,99277.88
2023-12-11T01:24:42.368Z,99255.97
2023-12-11T01:27:09.126Z,99257.91
2023-12-11T01:29:37.124Z,99272.69
2023-12-11T01:32:05.547Z,99275.41
2023-12-11T01:34:36.536Z,99264.50
2023-12-11T01:37:03.854Z,99263.94
2023-12-11T01:39:34.159Z,99260.38
2023-12-11T01:42:01.146Z,99266.94
2023-12-11T01:44:29.062Z,99251.88
2023-12-11T01:46:55.924Z,99246.97
2023-12-11T01:49:24.494Z,99272.34
2023-12-11T01:51:52.405Z,99270.75
2023-12-11T01:54:20.810Z,99261.44
2023-12-11T01:56:47.839Z,99267.72
2023-12-11T01:59:15.390Z,99271.00
2023-12-11T02:01:43.491Z,99283.53
2023-12-11T02:04:10.427Z,99270.41
2023-12-11T02:06:37.272Z,99284.06
2023-12-11T02:09:03.796Z,99284.63
2023-12-11T02:11:49.169Z,99271.50
2023-12-11T02:14:16.709Z,99250.19
2023-12-11T02:16:44.135Z,99241.44
2023-12-11T02:21:52.515Z,99226.66
2023-12-11T02:24:26.601Z,99231.63
2023-12-11T02:26:53.913Z,99222.31
2023-12-11T02:29:34.221Z,99214.63
2023-12-11T02:32:01.559Z,99206.72
2023-12-11T02:34:30.283Z,99236.81
2023-12-11T02:37:01.722Z,99209.69
2023-12-11T02:39:30.070Z,99209.69
2023-12-11T02:41:57.156Z,99258.97
2023-12-11T02:44:24.230Z,99210.31
2023-12-11T02:46:52.853Z,99228.66
2023-12-11T02:49:22.234Z,99235.22
2023-12-11T02:51:51.677Z,99202.41
2023-12-11T02:54:21.548Z,99208.72
2023-12-11T02:56:49.822Z,99230.59
2023-12-11T02:59:16.439Z,99221.34
2023-12-11T03:01:46.096Z,99231.69
2023-12-11T03:04:13.530Z,99214.75
2023-12-11T03:06:41.645Z,99211.50
2023-12-11T03:09:11.123Z,99200.31
2023-12-11T03:11:37.929Z,99214.25
2023-12-11T03:14:04.650Z,99202.78
2023-12-11T03:16:31.491Z,99202.25
2023-12-11T03:18:58.412Z,99204.16
2023-12-11T03:21:25.163Z,99199.50
2023-12-11T03:23:52.925Z,99190.22
2023-12-11T03:26:20.666Z,99185.06
2023-12-11T03:28:47.637Z,99188.03
2023-12-11T03:31:14.721Z,99172.75
2023-12-11T03:33:44.539Z,99190.75
2023-12-11T03:36:11.289Z,99185.28
2023-12-11T03:38:37.860Z,99183.66
2023-12-11T03:41:05.084Z,99168.38
2023-12-11T03:43:32.105Z,99177.09
2023-12-11T03:45:59.086Z,99168.66
2023-12-11T03:48:25.911Z,99153.63
2023-12-11T03:50:55.548Z,99172.19
2023-12-11T03:53:22.654Z,99182.56
2023-12-11T03:55:50.459Z,99173.25
2023-12-11T03:58:17.318Z,99167.28
2023-12-11T04:00:44.253Z,99166.16
2023-12-11T04:03:14.596Z,99161.81
2023-12-11T04:05:41.573Z,99158.53
2023-12-11T04:08:08.506Z,99163.44
2023-12-11T04:10:35.515Z,99160.19
2023-12-11T04:13:04.175Z,99165.63
2023-12-11T04:15:31.278Z,99158.81
2023-12-11T04:21:13.837Z,99128.75
2023-12-11T04:23:48.185Z,99117.56
2023-12-11T04:26:34.624Z,99090.25
2023-12-11T04:29:06.064Z,99069.25
2023-12-11T04:31:33.326Z,99065.44
2023-12-11T04:34:00.373Z,99073.91
2023-12-11T04:36:27.863Z,99056.44
2023-12-11T04:38:54.901Z,99089.22
2023-12-11T04:41:22.040Z,99069.53
2023-12-11T04:43:50.212Z,99080.50
2023-12-11T04:46:20.303Z,99078.00
2023-12-11T04:48:47.326Z,99107.25
2023-12-11T04:51:14.610Z,99076.69
2023-12-11T04:53:41.434Z,99102.06
2023-12-11T04:56:08.556Z,99104.00
2023-12-11T04:58:39.139Z,99092.78
2023-12-11T05:01:06.413Z,99080.50
2023-12-11T05:03:40.387Z,99090.88
2023-12-11T05:06:07.822Z,99089.53
2023-12-11T05:08:40.984Z,99087.88
2023-12-11T05:11:08.087Z,99059.22
2023-12-11T05:13:35.231Z,99038.47
2023-12-11T05:16:02.732Z,99048.84
2023-12-11T05:18:32.799Z,99066.88
2023-12-11T05:21:00.094Z,99050.75
2023-12-11T05:23:27.480Z,99070.69
2023-12-11T05:25:58.153Z,99074.25
2023-12-11T05:28:25.058Z,99078.84
2023-12-11T05:30:52.198Z,99084.06
2023-12-11T05:33:20.930Z,99061.41
2023-12-11T05:35:49.101Z,99037.13
2023-12-11T05:38:17.080Z,99057.59
2023-12-11T05:40:51.581Z,99075.03
2023-12-11T05:43:19.563Z,99055.94
2023-12-11T05:45:47.230Z,99082.41
2023-12-11T05:48:14.081Z,99079.94
2023-12-11T05:50:41.522Z,99062.47
2023-12-11T05:53:08.835Z,99081.03
2023-12-11T05:55:35.472Z,99084.88
2023-12-11T05:58:02.087Z,99088.66
2023-12-11T06:00:29.043Z,99100.94
2023-12-11T06:02:56.014Z,99103.97
2023-12-11T06:05:22.902Z,99128.81
2023-12-11T06:07:49.932Z,99125.81
2023-12-11T06:10:23.523Z,99135.63
2023-12-11T06:12:53.351Z,99125.25
2023-12-11T06:15:20.289Z,99118.19
2023-12-11T06:17:49.385Z,99113.78
2023-12-11T06:20:37.160Z,99113.81
2023-12-11T06:23:25.275Z,99083.50
2023-12-11T06:25:59.814Z,99094.41
2023-12-11T06:28:28.137Z,99078.59
2023-12-11T06:30:58.559Z,99086.25
2023-12-11T06:33:30.280Z,99063.59
2023-12-11T06:35:58.579Z,99064.13
2023-12-11T06:38:26.289Z,99068.50
2023-12-11T06:40:59.717Z,99076.16
2023-12-11T06:43:30.154Z,99081.03
2023-12-11T06:45:58.611Z,99061.66
2023-12-11T06:48:29.199Z,99084.59
2023-12-11T06:50:56.619Z,99058.91
2023-12-11T06:53:23.897Z,99093.31
2023-12-11T06:55:51.622Z,99073.94
2023-12-11T06:58:32.344Z,99074.19
2023-12-11T07:01:01.739Z,99101.47
2023-12-11T07:03:32.160Z,99097.94
2023-12-11T07:05:59.327Z,99107.78
2023-12-11T07:11:07.848Z,99110.47
2023-12-11T07:13:35.332Z,99116.47
2023-12-11T07:16:03.802Z,99104.75
2023-12-11T07:18:31.062Z,99110.50
2023-12-11T07:21:00.729Z,99111.03
2023-12-11T07:23:27.551Z,99115.97
2023-12-11T07:25:54.743Z,99119.25
2023-12-11T07:28:22.041Z,99106.69
2023-12-11T07:30:49.106Z,99111.88
2023-12-11T07:33:19.461Z,99102.59
2023-12-11T07:35:46.204Z,99102.31
2023-12-11T07:38:15.850Z,99105.03
2023-12-11T07:43:47.665Z,99087.00
2023-12-11T07:49:25.822Z,99077.72
2023-12-11T07:51:59.374Z,99075.81
2023-12-11T07:54:26.408Z,99071.16
2023-12-11T07:57:01.991Z,99076.66
2023-12-11T07:59:35.972Z,99108.88
2023-12-11T08:04:47.508Z,99132.91
2023-12-11T08:07:17.882Z,99142.47
2023-12-11T08:09:45.931Z,99133.47
2023-12-11T08:12:12.727Z,99135.09
2023-12-11T08:14:39.986Z,99150.38
2023-12-11T08:17:14.610Z,99132.09
2023-12-11T08:19:41.430Z,99142.19
2023-12-11T08:22:12.191Z,99162.41
2023-12-11T08:24:39.776Z,99156.38
2023-12-11T08:27:10.339Z,99145.75
2023-12-11T08:29:43.331Z,99154.75
2023-12-11T08:32:11.086Z,99167.59
2023-12-11T08:34:38.742Z,99167.88
2023-12-11T08:37:16.764Z,99168.13
2023-12-11T08:39:47.267Z,99160.75
2023-12-11T08:42:14.328Z,99154.72
2023-12-11T08:44:42.845Z,99179.84
2023-12-11T08:47:17.253Z,99175.50
2023-12-11T08:49:45.373Z,99177.13
2023-12-11T08:52:12.520Z,99172.22
2023-12-11T08:54:40.073Z,99166.22
2023-12-11T08:57:09.650Z,99177.69
2023-12-11T08:59:37.733Z,99195.16
2023-12-11T09:02:17.521Z,99200.88
2023-12-11T09:07:33.074Z,99177.13
2023-12-11T09:10:12.098Z,99214.25
2023-12-11T09:12:42.863Z,99211.53
2023-12-11T09:15:11.732Z,99206.06
2023-12-11T09:20:43.818Z,99216.97
2023-12-11T09:23:40.372Z,99200.59
2023-12-11T09:26:16.767Z,99208.22
2023-12-11T09:31:40.169Z,99212.06
2023-12-11T09:34:19.097Z,99230.63
2023-12-11T09:37:00.579Z,99232.25
2023-12-11T09:42:23.013Z,99245.09
2023-12-11T09:44:54.508Z,99250.28
2023-12-11T09:47:27.755Z,99252.47
2023-12-11T09:50:10.246Z,99247.03
2023-12-11T09:52:54.492Z,99250.84
2023-12-11T09:55:22.980Z,99265.59
2023-12-11T09:57:51.208Z,99254.13
2023-12-11T10:00:19.870Z,99273.78
2023-12-11T10:02:57.588Z,99261.75
2023-12-11T10:05:28.171Z,99272.16
2023-12-11T10:07:59.154Z,99268.31
2023-12-11T10:10:35.516Z,99272.69
2023-12-11T10:13:17.753Z,99272.16
2023-12-11T10:19:03.510Z,99233.63
2023-12-11T10:21:50.515Z,99243.19
2023-12-11T10:27:06.265Z,99239.91
2023-12-11T10:29:40.565Z,99228.44
2023-12-11T10:32:12.749Z,99264.75
2023-12-11T10:35:01.499Z,99245.91
2023-12-11T10:38:04.230Z,99293.47
2023-12-11T10:40:46.913Z,99286.06
2023-12-11T10:43:15.797Z,99293.19
2023-12-11T10:45:51.377Z,99290.72
2023-12-11T10:54:04.033Z,99253.03
2023-12-11T10:56:40.403Z,99290.75
2023-12-11T10:59:24.081Z,99269.69
2023-12-11T11:04:48.777Z,99271.63
2023-12-11T11:07:37.793Z,99276.00
2023-12-11T11:10:22.459Z,99293.19
2023-12-11T11:13:02.096Z,99286.63
2023-12-11T11:18:15.642Z,99318.66
2023-12-11T11:20:47.684Z,99282.03
2023-12-11T11:23:24.427Z,99324.41
2023-12-11T11:25:57.455Z,99295.69
2023-12-11T11:28:55.272Z,99348.19
2023-12-11T11:31:57.215Z,99306.06
2023-12-11T11:34:47.160Z,99342.41
2023-12-11T11:37:47.258Z,99298.97
2023-12-11T11:40:17.255Z,99342.16
2023-12-11T11:42:45.977Z,99342.41
2023-12-11T11:45:13.103Z,99353.91
2023-12-11T11:47:45.574Z,99350.91
2023-12-11T11:50:14.654Z,99344.63
2023-12-11T11:52:44.632Z,99335.06
2023-12-11T11:55:18.328Z,99342.16
2023-12-11T11:57:45.942Z,99352.00
2023-12-11T12:00:14.456Z,99354.22
2023-12-11T12:02:41.939Z,99354.72
2023-12-11T12:08:18.508Z,99365.16
2023-12-11T12:10:45.982Z,99362.69
2023-12-11T12:13:17.016Z,99368.97
2023-12-11T12:15:55.254Z,99370.63
2023-12-11T12:18:26.400Z,99367.59
2023-12-11T12:21:04.364Z,99385.38
2023-12-11T12:23:31.515Z,99381.00
2023-12-11T12:28:56.951Z,99374.94
2023-12-11T12:34:18.310Z,99397.91
2023-12-11T12:36:46.546Z,99390.25
2023-12-11T12:39:15.704Z,99400.66
2023-12-11T12:41:42.967Z,99402.31
2023-12-11T12:44:09.886Z,99404.50
2023-12-11T12:46:43.797Z,99405.06
2023-12-11T12:49:12.229Z,99418.16
2023-12-11T12:52:42.561Z,99422.00
2023-12-11T12:55:12.826Z,99405.63
2023-12-11T12:57:48.851Z,99405.59
2023-12-11T13:00:23.815Z,99405.63
2023-12-11T13:03:02.107Z,99393.59
2023-12-11T13:06:13.627Z,99431.34
2023-12-11T13:09:00.324Z,99406.44
2023-12-11T13:11:58.534Z,99417.13
2023-12-11T13:14:32.399Z,99425.59
2023-12-11T13:17:01.043Z,99412.47
2023-12-11T13:19:31.840Z,99393.31
2023-12-11T13:22:01.156Z,99408.94
2023-12-11T13:24:35.627Z,99429.19
2023-12-11T13:27:05.764Z,99426.44
2023-12-11T13:29:35.654Z,99402.59
2023-12-11T13:32:08.988Z,99425.59
2023-12-11T13:34:52.413Z,99420.38
2023-12-11T15:41:55.887Z,99664.25
2023-12-11T15:44:22.500Z,99663.72
2023-12-11T15:46:49.149Z,99653.56
2023-12-11T15:49:15.999Z,99668.91
2023-12-11T15:51:43.070Z,99661.16
2023-12-11T15:54:10.246Z,99662.56
2023-12-11T15:56:37.031Z,99665.88
2023-12-11T15:59:04.969Z,99681.16
2023-12-11T16:01:31.910Z,99674.03
2023-12-11T16:03:58.987Z,99676.72
2023-12-11T16:06:30.003Z,99669.59
2023-12-11T16:08:56.706Z,99645.72
2023-12-11T16:11:23.507Z,99676.44
2023-12-11T16:13:50.058Z,99685.44
2023-12-11T16:16:19.364Z,99682.16
2023-12-11T16:18:48.400Z,99686.44
2023-12-11T16:21:15.307Z,99693.22
2023-12-11T16:23:42.124Z,99682.00
2023-12-11T16:26:14.915Z,99689.69
2023-12-11T16:39:39.868Z,99698.34
2023-12-11T17:32:00.532Z,99715.41
2023-12-11T18:21:35.102Z,99770.75
2023-12-11T18:27:12.720Z,99781.72
2023-12-11T18:29:44.176Z,99772.63
2023-12-11T18:32:16.298Z,99799.28
2023-12-11T18:34:58.626Z,99802.59
2023-12-11T18:37:31.291Z,99788.47
2023-12-11T18:39:58.899Z,99799.72
2023-12-11T18:48:22.900Z,99800.13
2023-12-11T18:56:46.338Z,99812.69
2023-12-11T18:59:16.184Z,99815.41
2023-12-11T19:01:44.817Z,99821.41
2023-12-11T19:04:12.951Z,99821.34
2023-12-11T19:06:39.929Z,99810.84
2023-12-11T19:09:08.956Z,99855.44
2023-12-11T19:11:36.310Z,99830.59
2023-12-11T19:14:03.214Z,99851.56
2023-12-11T19:16:29.931Z,99862.56
2023-12-11T19:18:58.308Z,99858.16
2023-12-11T19:21:25.108Z,99863.41
2023-12-11T19:23:53.136Z,99862.56
2023-12-11T19:26:20.826Z,99868.25
2023-12-11T19:28:47.832Z,99853.38
2023-12-11T19:31:16.594Z,99872.31
2023-12-11T19:33:44.604Z,99879.41
2023-12-11T19:36:11.608Z,99869.50
2023-12-11T19:38:38.698Z,99874.97
2023-12-11T19:41:12.458Z,99862.53
2023-12-11T19:43:40.397Z,99875.44
2023-12-11T19:46:08.678Z,99877.09
2023-12-11T19:48:39.827Z,99872.84
2023-12-11T19:51:13.535Z,99883.88
2023-12-11T19:56:24.287Z,99884.94
2023-12-11T19:58:57.520Z,99883.03
2023-12-11T20:04:22.033Z,99891.44
2023-12-11T20:06:51.341Z,99891.72
2023-12-11T20:09:18.416Z,99894.44
2023-12-11T20:14:30.840Z,99903.16
2023-12-11T20:17:12.403Z,99888.66
2023-12-11T20:25:04.578Z,99901.88
2023-12-11T20:30:22.689Z,99901.03
2023-12-11T20:41:28.735Z,99895.41
2023-12-11T20:52:12.191Z,99900.56
2023-12-11T20:54:50.934Z,99905.50
2023-12-11T21:00:05.627Z,99874.44
2023-12-11T21:02:45.058Z,99882.69
2023-12-11T21:05:14.159Z,99862.88
2023-12-11T21:07:46.718Z,99862.78
2023-12-11T21:10:13.641Z,99877.34
2023-12-11T21:15:31.517Z,99897.22
2023-12-11T21:18:03.040Z,99862.84
2023-12-11T21:20:44.376Z,99885.63
2023-12-11T21:23:13.387Z,99900.66
2023-12-11T21:25:41.829Z,99913.91
2023-12-11T21:28:12.266Z,99909.78
2023-12-11T21:30:39.342Z,99912.97
2023-12-11T21:33:10.588Z,99910.59
2023-12-11T21:35:38.511Z,99909.25
2023-12-11T21:38:15.737Z,99904.66
2023-12-11T21:40:45.320Z,99906.31
2023-12-11T21:48:45.729Z,99910.69
2023-12-11T21:51:21.900Z,99912.25
2023-12-11T21:53:57.541Z,99931.06
2023-12-11T21:56:28.880Z,99925.28
2023-12-11T21:59:03.384Z,99920.66
2023-12-11T22:04:22.749Z,99927.91
2023-12-11T22:07:00.754Z,99930.38
2023-12-11T22:09:30.163Z,99927.34
2023-12-11T22:12:02.287Z,99934.44
2023-12-11T22:17:24.177Z,99923.34
2023-12-11T22:22:49.708Z,99938.13
2023-12-11T22:25:34.896Z,99946.56
2023-12-11T22:30:52.751Z,99941.91
2023-12-11T22:36:07.961Z,99963.72
2023-12-11T22:41:37.082Z,99972.84
2023-12-11T22:47:06.360Z,99976.97
2023-12-11T22:49:42.701Z,99966.84
2023-12-11T22:55:05.274Z,99981.03
2023-12-11T22:57:43.221Z,99981.88
2023-12-11T23:03:25.959Z,99951.75
2023-12-11T23:11:27.054Z,99930.44
2023-12-11T23:14:03.860Z,99968.97
2023-12-11T23:22:02.496Z,99976.88
2023-12-11T23:24:30.815Z,99980.47
2023-12-11T23:27:09.871Z,99986.00
2023-12-11T23:32:25.546Z,99982.22
2023-12-11T23:43:31.681Z,99978.91
2023-12-11T23:48:44.958Z,99986.00
2023-12-11T23:51:18.735Z,99993.94
2023-12-11T23:54:02.862Z,99993.09
2023-12-11T23:56:51.579Z,99991.44
